sensor_id;sensor_type;location;lat;lon;timestamp;temperature;humidity
44705;DHT22;30431;48.520;9.046;2022-09-17T00:01:45;9.30;99.90
44705;DHT22;30431;48.520;9.046;2022-09-17T00:04:12;9.30;99.90
44705;DHT22;30431;48.520;9.046;2022-09-17T00:06:42;9.30;99.90
44705;DHT22;30431;48.520;9.046;2022-09-17T00:09:11;9.30;99.90
44705;DHT22;30431;48.520;9.046;2022-09-17T00:11:40;9.40;99.90
44705;DHT22;30431;48.520;9.046;2022-09-17T00:14:14;9.40;99.90
44705;DHT22;30431;48.520;9.046;2022-09-17T00:16:46;9.50;99.90
44705;DHT22;30431;48.520;9.046;2022-09-17T00:19:21;9.60;99.90
44705;DHT22;30431;48.520;9.046;2022-09-17T00:21:48;9.70;99.90
44705;DHT22;30431;48.520;9.046;2022-09-17T00:24:21;9.80;99.90
44705;DHT22;30431;48.520;9.046;2022-09-17T00:26:49;9.90;99.90
44705;DHT22;30431;48.520;9.046;2022-09-17T00:29:16;9.90;99.90
44705;DHT22;30431;48.520;9.046;2022-09-17T00:31:43;10.00;99.90
44705;DHT22;30431;48.520;9.046;2022-09-17T00:34:10;10.10;99.90
44705;DHT22;30431;48.520;9.046;2022-09-17T00:36:38;10.20;99.90
44705;DHT22;30431;48.520;9.046;2022-09-17T00:39:08;10.20;99.90
44705;DHT22;30431;48.520;9.046;2022-09-17T00:41:36;10.30;99.90
44705;DHT22;30431;48.520;9.046;2022-09-17T00:44:42;10.30;99.90
44705;DHT22;30431;48.520;9.046;2022-09-17T00:47:18;10.40;99.90
44705;DHT22;30431;48.520;9.046;2022-09-17T00:49:48;10.40;99.90
44705;DHT22;30431;48.520;9.046;2022-09-17T00:52:21;10.40;99.90
44705;DHT22;30431;48.520;9.046;2022-09-17T00:54:57;10.40;99.90
44705;DHT22;30431;48.520;9.046;2022-09-17T00:57:26;10.40;99.90
44705;DHT22;30431;48.520;9.046;2022-09-17T00:59:56;10.40;99.90
44705;DHT22;30431;48.520;9.046;2022-09-17T01:02:24;10.30;99.90
44705;DHT22;30431;48.520;9.046;2022-09-17T01:04:51;10.40;99.90
44705;DHT22;30431;48.520;9.046;2022-09-17T01:07:22;10.50;99.90
44705;DHT22;30431;48.520;9.046;2022-09-17T01:09:58;10.60;99.90
44705;DHT22;30431;48.520;9.046;2022-09-17T01:21:04;10.50;99.90
44705;DHT22;30431;48.520;9.046;2022-09-17T01:39:55;10.60;99.90
44705;DHT22;30431;48.520;9.046;2022-09-17T01:45:42;10.60;99.90
44705;DHT22;30431;48.520;9.046;2022-09-17T01:48:12;10.50;99.90
44705;DHT22;30431;48.520;9.046;2022-09-17T01:51:06;10.40;99.90
44705;DHT22;30431;48.520;9.046;2022-09-17T01:53:54;10.40;99.90
44705;DHT22;30431;48.520;9.046;2022-09-17T01:56:30;10.40;99.90
44705;DHT22;30431;48.520;9.046;2022-09-17T01:59:09;10.20;99.90
44705;DHT22;30431;48.520;9.046;2022-09-17T02:01:38;10.20;99.90
44705;DHT22;30431;48.520;9.046;2022-09-17T02:04:16;10.10;99.90
44705;DHT22;30431;48.520;9.046;2022-09-17T02:06:52;10.00;99.90
44705;DHT22;30431;48.520;9.046;2022-09-17T02:09:42;9.90;99.90
44705;DHT22;30431;48.520;9.046;2022-09-17T02:12:15;9.80;99.90
44705;DHT22;30431;48.520;9.046;2022-09-17T02:14:52;9.80;99.90
44705;DHT22;30431;48.520;9.046;2022-09-17T02:17:26;9.70;99.90
44705;DHT22;30431;48.520;9.046;2022-09-17T02:19:55;9.80;99.90
44705;DHT22;30431;48.520;9.046;2022-09-17T02:22:42;9.80;99.90
44705;DHT22;30431;48.520;9.046;2022-09-17T02:25:35;9.90;99.90
44705;DHT22;30431;48.520;9.046;2022-09-17T02:28:14;9.80;99.90
44705;DHT22;30431;48.520;9.046;2022-09-17T02:30:43;9.80;99.90
44705;DHT22;30431;48.520;9.046;2022-09-17T02:33:13;9.70;99.90
44705;DHT22;30431;48.520;9.046;2022-09-17T02:35:44;9.70;99.90
44705;DHT22;30431;48.520;9.046;2022-09-17T02:38:12;9.60;99.90
44705;DHT22;30431;48.520;9.046;2022-09-17T02:40:52;9.60;99.90
44705;DHT22;30431;48.520;9.046;2022-09-17T02:43:50;9.60;99.90
44705;DHT22;30431;48.520;9.046;2022-09-17T02:51:50;10.00;99.90
44705;DHT22;30431;48.520;9.046;2022-09-17T02:54:30;10.00;99.90
44705;DHT22;30431;48.520;9.046;2022-09-17T02:57:26;10.00;99.90
44705;DHT22;30431;48.520;9.046;2022-09-17T03:02:37;9.90;99.90
44705;DHT22;30431;48.520;9.046;2022-09-17T03:05:09;9.90;99.90
44705;DHT22;30431;48.520;9.046;2022-09-17T03:07:37;9.90;99.90
44705;DHT22;30431;48.520;9.046;2022-09-17T03:10:05;9.90;99.90
44705;DHT22;30431;48.520;9.046;2022-09-17T03:12:32;10.00;99.90
44705;DHT22;30431;48.520;9.046;2022-09-17T03:14:59;10.00;99.90
44705;DHT22;30431;48.520;9.046;2022-09-17T03:17:26;10.00;99.90
44705;DHT22;30431;48.520;9.046;2022-09-17T03:19:53;9.90;99.90
44705;DHT22;30431;48.520;9.046;2022-09-17T03:22:20;10.00;99.90
44705;DHT22;30431;48.520;9.046;2022-09-17T03:24:47;10.10;99.90
44705;DHT22;30431;48.520;9.046;2022-09-17T03:27:14;10.10;99.90
44705;DHT22;30431;48.520;9.046;2022-09-17T03:29:41;10.10;99.90
44705;DHT22;30431;48.520;9.046;2022-09-17T03:32:11;10.00;99.90
44705;DHT22;30431;48.520;9.046;2022-09-17T03:34:38;9.90;99.90
44705;DHT22;30431;48.520;9.046;2022-09-17T03:37:04;9.60;99.90
44705;DHT22;30431;48.520;9.046;2022-09-17T03:39:31;9.40;99.90
44705;DHT22;30431;48.520;9.046;2022-09-17T03:41:59;9.30;99.90
44705;DHT22;30431;48.520;9.046;2022-09-17T03:44:28;9.20;99.90
44705;DHT22;30431;48.520;9.046;2022-09-17T03:46:55;9.10;99.90
44705;DHT22;30431;48.520;9.046;2022-09-17T03:49:22;9.00;99.90
44705;DHT22;30431;48.520;9.046;2022-09-17T03:51:54;9.00;99.90
44705;DHT22;30431;48.520;9.046;2022-09-17T03:54:26;9.00;99.90
44705;DHT22;30431;48.520;9.046;2022-09-17T03:56:53;9.00;99.90
44705;DHT22;30431;48.520;9.046;2022-09-17T03:59:19;9.00;99.90
44705;DHT22;30431;48.520;9.046;2022-09-17T04:01:46;9.20;99.90
44705;DHT22;30431;48.520;9.046;2022-09-17T04:04:14;9.30;99.90
44705;DHT22;30431;48.520;9.046;2022-09-17T04:06:41;9.40;99.90
44705;DHT22;30431;48.520;9.046;2022-09-17T04:09:08;9.40;99.90
44705;DHT22;30431;48.520;9.046;2022-09-17T04:11:35;9.40;99.90
44705;DHT22;30431;48.520;9.046;2022-09-17T04:14:02;9.40;99.90
44705;DHT22;30431;48.520;9.046;2022-09-17T04:16:28;9.40;99.90
44705;DHT22;30431;48.520;9.046;2022-09-17T04:18:55;9.40;99.90
44705;DHT22;30431;48.520;9.046;2022-09-17T04:21:22;9.30;99.90
44705;DHT22;30431;48.520;9.046;2022-09-17T04:23:51;9.30;99.90
44705;DHT22;30431;48.520;9.046;2022-09-17T04:26:21;9.40;99.90
44705;DHT22;30431;48.520;9.046;2022-09-17T04:28:50;9.40;99.90
44705;DHT22;30431;48.520;9.046;2022-09-17T04:31:17;9.40;99.90
44705;DHT22;30431;48.520;9.046;2022-09-17T04:33:44;9.40;99.90
44705;DHT22;30431;48.520;9.046;2022-09-17T04:36:11;9.50;99.90
44705;DHT22;30431;48.520;9.046;2022-09-17T04:38:38;9.60;99.90
44705;DHT22;30431;48.520;9.046;2022-09-17T04:41:08;9.60;99.90
44705;DHT22;30431;48.520;9.046;2022-09-17T04:43:34;9.60;99.90
44705;DHT22;30431;48.520;9.046;2022-09-17T04:46:01;9.60;99.90
44705;DHT22;30431;48.520;9.046;2022-09-17T04:48:31;9.60;99.90
44705;DHT22;30431;48.520;9.046;2022-09-17T04:50:58;9.60;99.90
44705;DHT22;30431;48.520;9.046;2022-09-17T04:53:25;9.50;99.90
44705;DHT22;30431;48.520;9.046;2022-09-17T04:55:52;9.30;99.90
44705;DHT22;30431;48.520;9.046;2022-09-17T04:58:21;9.20;99.90
44705;DHT22;30431;48.520;9.046;2022-09-17T05:00:48;9.10;99.90
44705;DHT22;30431;48.520;9.046;2022-09-17T05:03:15;8.90;99.90
44705;DHT22;30431;48.520;9.046;2022-09-17T05:05:44;8.80;99.90
44705;DHT22;30431;48.520;9.046;2022-09-17T05:08:16;8.70;99.90
44705;DHT22;30431;48.520;9.046;2022-09-17T05:10:43;8.60;99.90
44705;DHT22;30431;48.520;9.046;2022-09-17T05:13:13;8.50;99.90
44705;DHT22;30431;48.520;9.046;2022-09-17T05:15:40;8.40;99.90
44705;DHT22;30431;48.520;9.046;2022-09-17T05:18:07;8.40;99.90
44705;DHT22;30431;48.520;9.046;2022-09-17T05:20:34;8.40;99.90
44705;DHT22;30431;48.520;9.046;2022-09-17T05:23:03;8.50;99.90
44705;DHT22;30431;48.520;9.046;2022-09-17T05:25:30;8.60;99.90
44705;DHT22;30431;48.520;9.046;2022-09-17T05:27:58;8.60;99.90
44705;DHT22;30431;48.520;9.046;2022-09-17T05:30:29;8.60;99.90
44705;DHT22;30431;48.520;9.046;2022-09-17T05:33:06;8.70;99.90
44705;DHT22;30431;48.520;9.046;2022-09-17T05:35:33;8.80;99.90
44705;DHT22;30431;48.520;9.046;2022-09-17T05:38:06;8.90;99.90
44705;DHT22;30431;48.520;9.046;2022-09-17T05:40:36;9.10;99.90
44705;DHT22;30431;48.520;9.046;2022-09-17T05:43:08;9.20;99.90
44705;DHT22;30431;48.520;9.046;2022-09-17T05:45:40;9.30;99.90
44705;DHT22;30431;48.520;9.046;2022-09-17T05:48:14;9.40;99.90
44705;DHT22;30431;48.520;9.046;2022-09-17T05:50:43;9.50;99.90
44705;DHT22;30431;48.520;9.046;2022-09-17T05:53:13;9.60;99.90
44705;DHT22;30431;48.520;9.046;2022-09-17T05:55:40;9.70;99.90
44705;DHT22;30431;48.520;9.046;2022-09-17T05:58:15;9.80;99.90
44705;DHT22;30431;48.520;9.046;2022-09-17T06:00:43;9.70;99.90
44705;DHT22;30431;48.520;9.046;2022-09-17T06:03:15;9.70;99.90
44705;DHT22;30431;48.520;9.046;2022-09-17T06:05:43;9.50;99.90
44705;DHT22;30431;48.520;9.046;2022-09-17T06:08:23;9.50;99.90
44705;DHT22;30431;48.520;9.046;2022-09-17T06:10:50;9.60;99.90
44705;DHT22;30431;48.520;9.046;2022-09-17T06:13:18;9.60;99.90
44705;DHT22;30431;48.520;9.046;2022-09-17T06:15:50;9.50;99.90
44705;DHT22;30431;48.520;9.046;2022-09-17T06:18:19;9.40;99.90
44705;DHT22;30431;48.520;9.046;2022-09-17T06:21:00;9.30;99.90
44705;DHT22;30431;48.520;9.046;2022-09-17T06:23:30;9.40;99.90
44705;DHT22;30431;48.520;9.046;2022-09-17T06:26:04;9.50;99.90
44705;DHT22;30431;48.520;9.046;2022-09-17T06:28:31;9.70;99.90
44705;DHT22;30431;48.520;9.046;2022-09-17T06:31:03;9.90;99.90
44705;DHT22;30431;48.520;9.046;2022-09-17T06:33:32;10.10;99.90
44705;DHT22;30431;48.520;9.046;2022-09-17T06:36:04;10.30;99.90
44705;DHT22;30431;48.520;9.046;2022-09-17T06:38:40;10.50;99.90
44705;DHT22;30431;48.520;9.046;2022-09-17T06:41:07;10.60;99.90
44705;DHT22;30431;48.520;9.046;2022-09-17T06:43:34;10.80;99.90
44705;DHT22;30431;48.520;9.046;2022-09-17T06:46:03;10.90;99.90
44705;DHT22;30431;48.520;9.046;2022-09-17T06:48:37;11.20;99.90
44705;DHT22;30431;48.520;9.046;2022-09-17T06:51:07;11.60;99.90
44705;DHT22;30431;48.520;9.046;2022-09-17T06:53:37;11.90;99.90
44705;DHT22;30431;48.520;9.046;2022-09-17T06:56:08;11.80;99.90
44705;DHT22;30431;48.520;9.046;2022-09-17T06:58:36;11.90;99.90
44705;DHT22;30431;48.520;9.046;2022-09-17T07:01:04;11.70;99.90
44705;DHT22;30431;48.520;9.046;2022-09-17T07:03:34;11.70;99.90
44705;DHT22;30431;48.520;9.046;2022-09-17T07:06:07;11.50;99.90
44705;DHT22;30431;48.520;9.046;2022-09-17T07:08:39;11.40;99.90
44705;DHT22;30431;48.520;9.046;2022-09-17T07:11:08;11.50;99.90
44705;DHT22;30431;48.520;9.046;2022-09-17T07:13:35;11.60;99.90
44705;DHT22;30431;48.520;9.046;2022-09-17T07:16:05;11.80;99.90
44705;DHT22;30431;48.520;9.046;2022-09-17T07:18:34;11.90;99.90
44705;DHT22;30431;48.520;9.046;2022-09-17T07:21:05;12.00;99.90
44705;DHT22;30431;48.520;9.046;2022-09-17T07:23:35;12.30;99.90
44705;DHT22;30431;48.520;9.046;2022-09-17T07:26:11;12.50;99.90
44705;DHT22;30431;48.520;9.046;2022-09-17T07:28:39;12.50;99.90
44705;DHT22;30431;48.520;9.046;2022-09-17T07:31:07;12.40;99.90
44705;DHT22;30431;48.520;9.046;2022-09-17T07:33:43;12.20;99.90
44705;DHT22;30431;48.520;9.046;2022-09-17T07:36:14;12.00;99.90
44705;DHT22;30431;48.520;9.046;2022-09-17T07:38:44;12.00;99.90
44705;DHT22;30431;48.520;9.046;2022-09-17T07:41:16;11.90;99.90
44705;DHT22;30431;48.520;9.046;2022-09-17T07:43:45;11.80;99.90
44705;DHT22;30431;48.520;9.046;2022-09-17T07:46:16;11.80;99.90
44705;DHT22;30431;48.520;9.046;2022-09-17T07:48:45;11.90;99.90
44705;DHT22;30431;48.520;9.046;2022-09-17T07:51:15;11.80;99.90
44705;DHT22;30431;48.520;9.046;2022-09-17T07:53:44;12.00;99.90
44705;DHT22;30431;48.520;9.046;2022-09-17T07:56:15;11.80;99.90
44705;DHT22;30431;48.520;9.046;2022-09-17T07:58:45;11.70;99.90
44705;DHT22;30431;48.520;9.046;2022-09-17T08:01:13;11.50;99.90
44705;DHT22;30431;48.520;9.046;2022-09-17T08:03:52;11.50;99.90
44705;DHT22;30431;48.520;9.046;2022-09-17T08:06:23;11.70;99.90
44705;DHT22;30431;48.520;9.046;2022-09-17T08:08:58;11.90;99.90
44705;DHT22;30431;48.520;9.046;2022-09-17T08:11:30;12.00;99.90
44705;DHT22;30431;48.520;9.046;2022-09-17T08:14:17;11.90;99.90
44705;DHT22;30431;48.520;9.046;2022-09-17T08:16:53;11.90;99.90
44705;DHT22;30431;48.520;9.046;2022-09-17T08:19:20;12.00;99.90
44705;DHT22;30431;48.520;9.046;2022-09-17T08:21:50;11.90;99.90
44705;DHT22;30431;48.520;9.046;2022-09-17T08:24:17;11.80;99.90
44705;DHT22;30431;48.520;9.046;2022-09-17T08:26:44;12.10;99.90
44705;DHT22;30431;48.520;9.046;2022-09-17T08:29:11;12.20;99.90
44705;DHT22;30431;48.520;9.046;2022-09-17T08:31:41;12.60;99.90
44705;DHT22;30431;48.520;9.046;2022-09-17T08:34:08;13.20;99.90
44705;DHT22;30431;48.520;9.046;2022-09-17T08:36:35;13.50;99.90
44705;DHT22;30431;48.520;9.046;2022-09-17T08:39:04;13.60;99.90
44705;DHT22;30431;48.520;9.046;2022-09-17T08:41:55;13.90;99.90
44705;DHT22;30431;48.520;9.046;2022-09-17T08:44:45;13.80;99.90
44705;DHT22;30431;48.520;9.046;2022-09-17T08:47:29;13.40;99.90
44705;DHT22;30431;48.520;9.046;2022-09-17T08:50:02;13.40;99.90
44705;DHT22;30431;48.520;9.046;2022-09-17T09:05:55;13.70;99.90
44705;DHT22;30431;48.520;9.046;2022-09-17T09:08:32;13.50;99.90
44705;DHT22;30431;48.520;9.046;2022-09-17T09:11:03;13.50;99.90
44705;DHT22;30431;48.520;9.046;2022-09-17T09:13:48;13.30;99.90
44705;DHT22;30431;48.520;9.046;2022-09-17T09:16:25;13.10;99.90
44705;DHT22;30431;48.520;9.046;2022-09-17T09:18:58;13.20;99.90
44705;DHT22;30431;48.520;9.046;2022-09-17T09:21:27;13.10;99.90
44705;DHT22;30431;48.520;9.046;2022-09-17T09:24:23;13.20;99.90
44705;DHT22;30431;48.520;9.046;2022-09-17T09:26:59;13.20;99.90
44705;DHT22;30431;48.520;9.046;2022-09-17T09:35:16;13.80;99.90
44705;DHT22;30431;48.520;9.046;2022-09-17T09:43:35;13.40;99.90
44705;DHT22;30431;48.520;9.046;2022-09-17T09:57:47;14.80;99.90
44705;DHT22;30431;48.520;9.046;2022-09-17T10:00:38;15.00;99.90
44705;DHT22;30431;48.520;9.046;2022-09-17T10:03:11;14.90;99.90
44705;DHT22;30431;48.520;9.046;2022-09-17T10:05:50;14.90;99.90
44705;DHT22;30431;48.520;9.046;2022-09-17T10:08:17;14.80;99.90
44705;DHT22;30431;48.520;9.046;2022-09-17T10:11:02;14.70;99.90
44705;DHT22;30431;48.520;9.046;2022-09-17T10:13:34;14.50;99.90
44705;DHT22;30431;48.520;9.046;2022-09-17T10:18:49;14.40;99.90
44705;DHT22;30431;48.520;9.046;2022-09-17T10:21:29;14.50;99.90
44705;DHT22;30431;48.520;9.046;2022-09-17T10:24:00;14.60;99.90
44705;DHT22;30431;48.520;9.046;2022-09-17T10:26:32;14.50;99.90
44705;DHT22;30431;48.520;9.046;2022-09-17T10:29:11;14.50;99.90
44705;DHT22;30431;48.520;9.046;2022-09-17T10:31:49;15.00;99.90
44705;DHT22;30431;48.520;9.046;2022-09-17T10:34:24;15.30;99.90
44705;DHT22;30431;48.520;9.046;2022-09-17T10:36:52;15.10;99.70
44705;DHT22;30431;48.520;9.046;2022-09-17T10:44:56;15.30;98.50
44705;DHT22;30431;48.520;9.046;2022-09-17T10:47:36;14.80;98.20
44705;DHT22;30431;48.520;9.046;2022-09-17T10:50:16;14.90;99.00
44705;DHT22;30431;48.520;9.046;2022-09-17T10:52:47;15.10;98.10
44705;DHT22;30431;48.520;9.046;2022-09-17T11:00:21;15.30;97.00
44705;DHT22;30431;48.520;9.046;2022-09-17T11:08:19;14.50;98.60
44705;DHT22;30431;48.520;9.046;2022-09-17T11:19:57;15.40;95.10
44705;DHT22;30431;48.520;9.046;2022-09-17T11:23:02;15.70;95.30
44705;DHT22;30431;48.520;9.046;2022-09-17T11:34:41;16.00;93.10
44705;DHT22;30431;48.520;9.046;2022-09-17T11:37:51;16.10;92.10
44705;DHT22;30431;48.520;9.046;2022-09-17T11:43:28;15.80;92.80
44705;DHT22;30431;48.520;9.046;2022-09-17T11:46:00;16.10;93.00
44705;DHT22;30431;48.520;9.046;2022-09-17T11:48:46;16.10;91.10
44705;DHT22;30431;48.520;9.046;2022-09-17T11:51:31;15.70;90.40
44705;DHT22;30431;48.520;9.046;2022-09-17T11:56:52;16.10;91.20
44705;DHT22;30431;48.520;9.046;2022-09-17T11:59:30;16.00;91.10
44705;DHT22;30431;48.520;9.046;2022-09-17T12:02:24;15.70;91.20
44705;DHT22;30431;48.520;9.046;2022-09-17T12:05:00;15.50;92.20
44705;DHT22;30431;48.520;9.046;2022-09-17T12:16:20;16.00;87.40
44705;DHT22;30431;48.520;9.046;2022-09-17T12:19:18;16.30;85.00
44705;DHT22;30431;48.520;9.046;2022-09-17T12:21:49;16.50;85.00
44705;DHT22;30431;48.520;9.046;2022-09-17T12:24:28;16.60;87.30
44705;DHT22;30431;48.520;9.046;2022-09-17T12:30:20;16.70;88.90
44705;DHT22;30431;48.520;9.046;2022-09-17T12:35:58;16.90;87.80
44705;DHT22;30431;48.520;9.046;2022-09-17T12:51:51;16.40;88.20
44705;DHT22;30431;48.520;9.046;2022-09-17T12:57:10;17.00;87.70
44705;DHT22;30431;48.520;9.046;2022-09-17T13:03:06;17.60;80.90
44705;DHT22;30431;48.520;9.046;2022-09-17T13:05:57;17.20;82.00
44705;DHT22;30431;48.520;9.046;2022-09-17T13:08:56;17.10;79.50
44705;DHT22;30431;48.520;9.046;2022-09-17T13:17:11;16.60;79.30
44705;DHT22;30431;48.520;9.046;2022-09-17T13:22:26;15.60;87.10
44705;DHT22;30431;48.520;9.046;2022-09-17T13:25:08;15.10;91.20
44705;DHT22;30431;48.520;9.046;2022-09-17T13:27:44;13.60;99.90
44705;DHT22;30431;48.520;9.046;2022-09-17T13:30:13;11.80;99.90
44705;DHT22;30431;48.520;9.046;2022-09-17T13:32:42;11.10;99.90
44705;DHT22;30431;48.520;9.046;2022-09-17T13:43:04;11.20;99.90
44705;DHT22;30431;48.520;9.046;2022-09-17T13:48:29;11.50;99.90
44705;DHT22;30431;48.520;9.046;2022-09-17T13:54:03;12.20;99.90
44705;DHT22;30431;48.520;9.046;2022-09-17T13:56:49;12.40;99.90
44705;DHT22;30431;48.520;9.046;2022-09-17T13:59:25;12.50;99.90
44705;DHT22;30431;48.520;9.046;2022-09-17T14:02:24;12.50;99.90
44705;DHT22;30431;48.520;9.046;2022-09-17T14:05:31;12.50;99.90
44705;DHT22;30431;48.520;9.046;2022-09-17T14:08:13;12.60;99.90
44705;DHT22;30431;48.520;9.046;2022-09-17T14:10:59;12.60;99.90
44705;DHT22;30431;48.520;9.046;2022-09-17T14:16:20;12.90;99.90
44705;DHT22;30431;48.520;9.046;2022-09-17T14:21:43;13.10;99.90
44705;DHT22;30431;48.520;9.046;2022-09-17T14:24:23;13.40;99.90
44705;DHT22;30431;48.520;9.046;2022-09-17T14:32:17;14.30;99.90
44705;DHT22;30431;48.520;9.046;2022-09-17T14:34:48;14.30;99.90
44705;DHT22;30431;48.520;9.046;2022-09-17T14:37:18;14.30;99.90
44705;DHT22;30431;48.520;9.046;2022-09-17T14:39:47;14.40;99.90
44705;DHT22;30431;48.520;9.046;2022-09-17T14:42:22;14.80;99.90
44705;DHT22;30431;48.520;9.046;2022-09-17T14:44:59;15.00;99.90
44705;DHT22;30431;48.520;9.046;2022-09-17T14:47:28;15.30;99.90
44705;DHT22;30431;48.520;9.046;2022-09-17T14:50:21;15.40;99.90
44705;DHT22;30431;48.520;9.046;2022-09-17T14:52:53;15.30;99.90
44705;DHT22;30431;48.520;9.046;2022-09-17T14:57:53;15.80;99.90
44705;DHT22;30431;48.520;9.046;2022-09-17T15:00:35;16.20;99.90
44705;DHT22;30431;48.520;9.046;2022-09-17T15:03:03;16.10;99.90
44705;DHT22;30431;48.520;9.046;2022-09-17T15:05:34;15.70;99.90
44705;DHT22;30431;48.520;9.046;2022-09-17T15:08:14;15.80;99.90
44705;DHT22;30431;48.520;9.046;2022-09-17T15:11:04;16.00;99.90
44705;DHT22;30431;48.520;9.046;2022-09-17T15:13:41;15.90;99.50
44705;DHT22;30431;48.520;9.046;2022-09-17T15:16:19;15.40;99.90
44705;DHT22;30431;48.520;9.046;2022-09-17T15:18:54;15.30;99.90
44705;DHT22;30431;48.520;9.046;2022-09-17T15:21:48;15.20;99.90
44705;DHT22;30431;48.520;9.046;2022-09-17T15:26:53;15.00;99.90
44705;DHT22;30431;48.520;9.046;2022-09-17T15:29:23;14.70;99.90
44705;DHT22;30431;48.520;9.046;2022-09-17T15:31:55;14.60;99.90
44705;DHT22;30431;48.520;9.046;2022-09-17T15:34:22;14.60;99.90
44705;DHT22;30431;48.520;9.046;2022-09-17T15:37:15;14.40;99.90
44705;DHT22;30431;48.520;9.046;2022-09-17T15:39:47;14.40;99.90
44705;DHT22;30431;48.520;9.046;2022-09-17T15:42:28;14.30;99.90
44705;DHT22;30431;48.520;9.046;2022-09-17T15:45:17;14.10;99.90
44705;DHT22;30431;48.520;9.046;2022-09-17T15:47:57;13.70;99.90
44705;DHT22;30431;48.520;9.046;2022-09-17T15:50:27;13.70;99.90
44705;DHT22;30431;48.520;9.046;2022-09-17T15:58:35;13.90;99.90
44705;DHT22;30431;48.520;9.046;2022-09-17T16:08:59;13.70;99.90
44705;DHT22;30431;48.520;9.046;2022-09-17T16:11:29;13.60;99.90
44705;DHT22;30431;48.520;9.046;2022-09-17T16:13:59;13.50;99.90
44705;DHT22;30431;48.520;9.046;2022-09-17T16:16:32;13.50;99.90
44705;DHT22;30431;48.520;9.046;2022-09-17T16:19:00;13.50;99.90
44705;DHT22;30431;48.520;9.046;2022-09-17T16:21:30;13.50;99.90
44705;DHT22;30431;48.520;9.046;2022-09-17T16:23:58;13.70;99.90
44705;DHT22;30431;48.520;9.046;2022-09-17T16:26:32;13.80;99.90
44705;DHT22;30431;48.520;9.046;2022-09-17T16:29:14;13.90;99.90
44705;DHT22;30431;48.520;9.046;2022-09-17T16:31:44;13.80;99.90
44705;DHT22;30431;48.520;9.046;2022-09-17T16:34:13;13.70;99.90
44705;DHT22;30431;48.520;9.046;2022-09-17T16:36:41;13.50;99.90
44705;DHT22;30431;48.520;9.046;2022-09-17T16:39:10;13.30;99.90
44705;DHT22;30431;48.520;9.046;2022-09-17T16:41:37;13.20;99.90
44705;DHT22;30431;48.520;9.046;2022-09-17T16:44:04;13.10;99.90
44705;DHT22;30431;48.520;9.046;2022-09-17T16:46:32;13.00;99.90
44705;DHT22;30431;48.520;9.046;2022-09-17T16:48:59;12.80;99.90
44705;DHT22;30431;48.520;9.046;2022-09-17T16:51:26;12.60;99.90
44705;DHT22;30431;48.520;9.046;2022-09-17T16:53:54;12.40;99.90
44705;DHT22;30431;48.520;9.046;2022-09-17T16:56:32;12.30;99.90
44705;DHT22;30431;48.520;9.046;2022-09-17T16:59:06;12.10;99.90
44705;DHT22;30431;48.520;9.046;2022-09-17T17:01:33;11.90;99.90
44705;DHT22;30431;48.520;9.046;2022-09-17T17:04:00;11.80;99.90
44705;DHT22;30431;48.520;9.046;2022-09-17T17:06:27;11.70;99.90
44705;DHT22;30431;48.520;9.046;2022-09-17T17:08:55;11.70;99.90
44705;DHT22;30431;48.520;9.046;2022-09-17T17:11:25;11.70;99.90
44705;DHT22;30431;48.520;9.046;2022-09-17T17:13:54;11.80;99.90
44705;DHT22;30431;48.520;9.046;2022-09-17T17:16:27;11.90;99.90
44705;DHT22;30431;48.520;9.046;2022-09-17T17:18:58;11.90;99.90
44705;DHT22;30431;48.520;9.046;2022-09-17T17:21:25;11.90;99.90
44705;DHT22;30431;48.520;9.046;2022-09-17T17:23:52;11.90;99.90
44705;DHT22;30431;48.520;9.046;2022-09-17T17:26:20;12.00;99.90
44705;DHT22;30431;48.520;9.046;2022-09-17T17:28:47;11.90;99.90
44705;DHT22;30431;48.520;9.046;2022-09-17T17:31:14;11.90;99.90
44705;DHT22;30431;48.520;9.046;2022-09-17T17:33:41;11.90;99.90
44705;DHT22;30431;48.520;9.046;2022-09-17T17:36:12;11.90;99.90
44705;DHT22;30431;48.520;9.046;2022-09-17T17:38:39;11.90;99.90
44705;DHT22;30431;48.520;9.046;2022-09-17T17:41:12;11.80;99.90
44705;DHT22;30431;48.520;9.046;2022-09-17T17:43:40;11.90;99.90
44705;DHT22;30431;48.520;9.046;2022-09-17T17:46:09;11.90;99.90
44705;DHT22;30431;48.520;9.046;2022-09-17T17:48:38;11.90;99.90
44705;DHT22;30431;48.520;9.046;2022-09-17T17:51:07;11.90;99.90
44705;DHT22;30431;48.520;9.046;2022-09-17T17:53:35;11.90;99.90
44705;DHT22;30431;48.520;9.046;2022-09-17T17:56:07;11.90;99.90
44705;DHT22;30431;48.520;9.046;2022-09-17T17:58:35;11.90;99.90
44705;DHT22;30431;48.520;9.046;2022-09-17T18:01:11;11.80;99.90
44705;DHT22;30431;48.520;9.046;2022-09-17T18:03:41;11.90;99.90
44705;DHT22;30431;48.520;9.046;2022-09-17T18:06:08;11.80;99.90
44705;DHT22;30431;48.520;9.046;2022-09-17T18:08:39;11.80;99.90
44705;DHT22;30431;48.520;9.046;2022-09-17T18:11:08;11.80;99.90
44705;DHT22;30431;48.520;9.046;2022-09-17T18:13:39;11.80;99.90
44705;DHT22;30431;48.520;9.046;2022-09-17T18:16:09;11.70;99.90
44705;DHT22;30431;48.520;9.046;2022-09-17T18:18:42;11.70;99.90
44705;DHT22;30431;48.520;9.046;2022-09-17T18:21:19;11.70;99.90
44705;DHT22;30431;48.520;9.046;2022-09-17T18:23:52;11.60;99.90
44705;DHT22;30431;48.520;9.046;2022-09-17T18:26:24;11.60;99.90
44705;DHT22;30431;48.520;9.046;2022-09-17T18:28:56;11.60;99.90
44705;DHT22;30431;48.520;9.046;2022-09-17T18:31:28;11.60;99.90
44705;DHT22;30431;48.520;9.046;2022-09-17T18:34:01;11.60;99.90
44705;DHT22;30431;48.520;9.046;2022-09-17T18:36:31;11.60;99.90
44705;DHT22;30431;48.520;9.046;2022-09-17T18:39:03;11.50;99.90
44705;DHT22;30431;48.520;9.046;2022-09-17T18:41:51;11.40;99.90
44705;DHT22;30431;48.520;9.046;2022-09-17T18:44:20;11.40;99.90
44705;DHT22;30431;48.520;9.046;2022-09-17T18:46:48;11.40;99.90
44705;DHT22;30431;48.520;9.046;2022-09-17T18:49:17;11.40;99.90
44705;DHT22;30431;48.520;9.046;2022-09-17T18:51:46;11.40;99.90
44705;DHT22;30431;48.520;9.046;2022-09-17T18:54:14;11.40;99.90
44705;DHT22;30431;48.520;9.046;2022-09-17T18:56:41;11.40;99.90
44705;DHT22;30431;48.520;9.046;2022-09-17T18:59:09;11.40;99.90
44705;DHT22;30431;48.520;9.046;2022-09-17T19:01:39;11.40;99.90
44705;DHT22;30431;48.520;9.046;2022-09-17T19:04:06;11.40;99.90
44705;DHT22;30431;48.520;9.046;2022-09-17T19:06:34;11.30;99.90
44705;DHT22;30431;48.520;9.046;2022-09-17T19:09:03;11.20;99.90
44705;DHT22;30431;48.520;9.046;2022-09-17T19:11:34;11.10;99.90
44705;DHT22;30431;48.520;9.046;2022-09-17T19:14:02;11.10;99.90
44705;DHT22;30431;48.520;9.046;2022-09-17T19:16:29;11.10;99.90
44705;DHT22;30431;48.520;9.046;2022-09-17T19:18:57;11.10;99.90
44705;DHT22;30431;48.520;9.046;2022-09-17T19:21:24;11.10;99.90
44705;DHT22;30431;48.520;9.046;2022-09-17T19:23:52;11.10;99.90
44705;DHT22;30431;48.520;9.046;2022-09-17T19:26:22;11.20;99.90
44705;DHT22;30431;48.520;9.046;2022-09-17T19:28:54;11.20;99.90
44705;DHT22;30431;48.520;9.046;2022-09-17T19:31:23;11.30;99.90